createdAt,value
2018-02-19T00:00:14.501Z,5.97
2018-02-19T00:02:47.405Z,5.95
2018-02-19T00:05:17.606Z,5.95
2018-02-19T00:07:47.496Z,5.95
2018-02-19T00:10:17.152Z,5.92
2018-02-19T00:12:46.412Z,5.92
2018-02-19T00:15:15.786Z,5.98
2018-02-19T00:17:45.044Z,5.99
2018-02-19T00:20:15.552Z,5.95
2018-02-19T00:22:44.845Z,5.95
2018-02-19T00:25:14.234Z,5.95
2018-02-19T00:27:44.179Z,6.03
2018-02-19T00:30:13.429Z,6.10
2018-02-19T00:32:42.754Z,6.03
2018-02-19T00:35:12.444Z,6.04
2018-02-19T00:37:41.685Z,6.10
2018-02-19T00:40:10.952Z,6.08
2018-02-19T00:42:40.356Z,6.01
2018-02-19T00:45:09.580Z,6.00
2018-02-19T00:47:39.338Z,5.99
2018-02-19T00:50:09.629Z,5.96
2018-02-19T00:52:38.913Z,5.95
2018-02-19T00:55:08.189Z,5.96
2018-02-19T00:57:37.505Z,5.92
2018-02-19T01:00:07.293Z,5.92
2018-02-19T01:02:36.586Z,5.95
2018-02-19T01:05:05.776Z,5.93
2018-02-19T01:07:35.410Z,5.95
2018-02-19T01:10:05.880Z,6.02
2018-02-19T01:12:35.153Z,5.99
2018-02-19T01:15:05.082Z,5.93
2018-02-19T01:17:34.309Z,5.98
2018-02-19T01:20:05.007Z,5.96
2018-02-19T01:22:34.762Z,5.97
2018-02-19T01:25:04.468Z,5.92
2018-02-19T01:27:33.726Z,5.92
2018-02-19T01:30:04.790Z,5.98
2018-02-19T01:32:34.229Z,5.88
2018-02-19T01:35:03.710Z,5.83
2018-02-19T01:37:32.974Z,5.85
2018-02-19T01:40:03.372Z,5.78
2018-02-19T01:42:32.602Z,5.85
2018-02-19T01:45:01.907Z,5.77
2018-02-19T01:47:31.129Z,5.78
2018-02-19T01:50:09.585Z,5.79
2018-02-19T01:52:39.617Z,5.80
2018-02-19T01:55:08.831Z,5.74
2018-02-19T01:57:38.039Z,5.72
2018-02-19T02:00:07.314Z,5.74
2018-02-19T02:02:36.934Z,5.72
2018-02-19T02:05:06.230Z,5.71
2018-02-19T02:07:35.455Z,5.75
2018-02-19T02:10:05.316Z,5.75
2018-02-19T02:12:34.562Z,5.67
2018-02-19T02:15:03.791Z,5.62
2018-02-19T02:17:33.448Z,5.62
2018-02-19T02:20:03.479Z,5.64
2018-02-19T02:22:32.714Z,5.67
2018-02-19T02:25:02.198Z,5.61
2018-02-19T02:27:31.435Z,5.60
2018-02-19T02:30:00.672Z,5.59
2018-02-19T02:32:30.385Z,5.61
2018-02-19T02:34:59.605Z,5.67
2018-02-19T02:37:28.811Z,5.70
2018-02-19T02:39:58.429Z,5.75
2018-02-19T02:42:27.656Z,5.71
2018-02-19T02:44:56.889Z,5.64
2018-02-19T02:47:26.450Z,5.68
2018-02-19T02:49:55.696Z,5.60
2018-02-19T02:52:24.992Z,5.66
2018-02-19T02:54:54.602Z,5.62
2018-02-19T02:57:23.831Z,5.57
2018-02-19T02:59:53.080Z,5.47
2018-02-19T03:02:23.240Z,5.45
2018-02-19T03:04:52.453Z,5.48
2018-02-19T03:07:21.738Z,5.48
2018-02-19T03:09:51.416Z,5.47
2018-02-19T03:12:20.643Z,5.45
2018-02-19T03:14:49.902Z,5.42
2018-02-19T03:17:20.070Z,5.32
2018-02-19T03:19:49.382Z,5.33
2018-02-19T03:22:18.628Z,5.33
2018-02-19T03:24:47.858Z,5.39
2018-02-19T03:27:17.980Z,5.39
2018-02-19T03:29:47.518Z,5.36
2018-02-19T03:32:17.058Z,5.44
2018-02-19T03:34:46.335Z,5.38
2018-02-19T03:37:15.618Z,5.34
2018-02-19T03:39:44.888Z,5.36
2018-02-19T03:42:15.648Z,5.31
2018-02-19T03:44:44.869Z,5.25
2018-02-19T03:47:14.263Z,5.23
2018-02-19T03:49:45.100Z,5.18
2018-02-19T03:52:14.405Z,5.26
2018-02-19T03:54:43.653Z,5.26
2018-02-19T03:57:12.872Z,5.22
2018-02-19T03:59:42.120Z,5.20
2018-02-19T04:02:11.784Z,5.22
2018-02-19T04:04:41.105Z,5.15
2018-02-19T04:07:10.360Z,5.15
2018-02-19T04:09:39.988Z,5.11
2018-02-19T04:12:09.218Z,5.10
2018-02-19T04:14:38.478Z,5.03
2018-02-19T04:17:07.692Z,5.03
2018-02-19T04:19:37.518Z,5.02
2018-02-19T04:22:06.760Z,4.97
2018-02-19T04:24:36.053Z,5.01
2018-02-19T04:27:05.433Z,4.98
2018-02-19T04:29:34.714Z,4.95
2018-02-19T04:32:05.074Z,4.95
2018-02-19T04:34:34.539Z,4.91
2018-02-19T04:37:04.118Z,4.91
2018-02-19T04:39:33.331Z,4.95
2018-02-19T04:42:03.086Z,4.90
2018-02-19T04:44:32.744Z,4.85
2018-02-19T04:47:02.136Z,4.81
2018-02-19T04:49:31.417Z,4.78
2018-02-19T04:52:00.639Z,4.75
2018-02-19T04:54:30.033Z,4.71
2018-02-19T04:56:59.244Z,4.73
2018-02-19T04:59:28.870Z,4.69
2018-02-19T05:01:58.134Z,4.65
2018-02-19T05:04:27.731Z,4.61
2018-02-19T05:06:56.973Z,4.60
2018-02-19T05:09:27.092Z,4.59
2018-02-19T05:11:56.339Z,4.57
2018-02-19T05:14:25.575Z,4.56
2018-02-19T05:16:54.850Z,4.52
2018-02-19T05:19:24.083Z,4.50
2018-02-19T05:21:53.770Z,4.51
2018-02-19T05:24:24.033Z,4.55
2018-02-19T05:26:53.311Z,4.53
2018-02-19T05:29:22.598Z,4.60
2018-02-19T05:31:51.838Z,4.56
2018-02-19T05:34:21.124Z,4.49
2018-02-19T05:36:50.923Z,4.48
2018-02-19T05:39:21.101Z,4.46
2018-02-19T05:41:50.323Z,4.46
2018-02-19T05:44:20.870Z,4.45
2018-02-19T05:46:50.194Z,4.41
2018-02-19T05:49:19.606Z,4.34
2018-02-19T05:51:49.180Z,4.32
2018-02-19T05:54:18.494Z,4.34
2018-02-19T05:56:47.751Z,4.36
2018-02-19T05:59:17.498Z,4.36
2018-02-19T06:01:46.755Z,4.28
2018-02-19T06:04:16.079Z,4.19
2018-02-19T06:06:45.883Z,4.23
2018-02-19T06:09:15.290Z,4.19
2018-02-19T06:11:44.651Z,4.11
2018-02-19T06:14:14.198Z,4.13
2018-02-19T06:16:43.407Z,4.16
2018-02-19T06:19:12.682Z,4.14
2018-02-19T06:21:42.406Z,4.17
2018-02-19T06:24:11.629Z,4.15
2018-02-19T06:26:40.931Z,4.12
2018-02-19T06:29:10.600Z,4.14
2018-02-19T06:31:41.004Z,4.08
2018-02-19T06:34:10.263Z,4.06
2018-02-19T06:36:39.934Z,3.95
2018-02-19T06:39:09.334Z,3.94
2018-02-19T06:41:38.554Z,3.88
2018-02-19T06:44:08.526Z,3.91
2018-02-19T06:46:37.758Z,3.99
2018-02-19T06:49:07.119Z,3.96
2018-02-19T06:51:36.743Z,3.87
2018-02-19T06:54:07.164Z,3.89
2018-02-19T06:56:36.424Z,3.86
2018-02-19T06:59:05.539Z,3.92
2018-02-19T07:01:34.868Z,3.88
2018-02-19T07:04:06.031Z,3.84
2018-02-19T07:06:35.900Z,3.88
2018-02-19T07:09:05.397Z,3.94
2018-02-19T07:11:34.632Z,3.98
2018-02-19T07:14:05.126Z,3.98
2018-02-19T07:16:34.376Z,4.05
2018-02-19T07:19:04.255Z,4.07
2018-02-19T07:21:34.491Z,4.11
2018-02-19T07:24:05.211Z,4.20
2018-02-19T07:26:34.524Z,4.26
2018-02-19T07:29:04.569Z,4.33
2018-02-19T07:31:33.854Z,4.31
2018-02-19T07:34:04.056Z,4.32
2018-02-19T07:36:33.654Z,4.35
2018-02-19T07:39:03.224Z,4.28
2018-02-19T07:41:32.531Z,4.29
2018-02-19T07:44:02.886Z,4.34
2018-02-19T07:46:33.587Z,4.41
2018-02-19T07:49:03.080Z,4.36
2018-02-19T07:51:32.306Z,4.43
2018-02-19T07:54:02.508Z,4.49
2018-02-19T07:59:07.838Z,4.53
2018-02-19T08:01:37.257Z,4.53
2018-02-19T08:04:06.971Z,4.55
2018-02-19T08:06:36.228Z,4.44
2018-02-19T08:09:06.352Z,4.47
2018-02-19T08:11:36.003Z,4.54
2018-02-19T08:14:05.981Z,4.50
2018-02-19T08:16:36.090Z,4.59
2018-02-19T08:19:05.912Z,4.74
2018-02-19T08:21:36.141Z,4.93
2018-02-19T08:24:06.035Z,4.93
2018-02-19T08:26:35.731Z,4.99
2018-02-19T08:29:05.206Z,4.93
2018-02-19T08:31:34.443Z,4.92
2018-02-19T08:34:04.946Z,4.94
2018-02-19T08:36:34.285Z,4.82
2018-02-19T08:39:03.935Z,4.87
2018-02-19T08:41:33.636Z,4.61
2018-02-19T08:44:05.098Z,4.70
2018-02-19T08:46:35.316Z,4.65
2018-02-19T08:49:04.929Z,4.62
2018-02-19T08:51:34.191Z,4.65
2018-02-19T08:54:04.704Z,4.66
2018-02-19T08:56:33.979Z,4.68
2018-02-19T08:59:03.449Z,4.70
2018-02-19T09:01:32.788Z,4.76
2018-02-19T09:04:03.187Z,4.93
2018-02-19T09:06:32.524Z,5.03
2018-02-19T09:09:01.879Z,5.02
2018-02-19T09:11:31.438Z,5.13
2018-02-19T09:14:00.807Z,5.14
2018-02-19T09:16:30.927Z,5.31
2018-02-19T09:19:00.541Z,5.43
2018-02-19T09:21:30.215Z,5.46
2018-02-19T09:23:59.579Z,5.48
2018-02-19T09:26:29.178Z,5.43
2018-02-19T09:28:58.411Z,5.55
2018-02-19T09:31:28.241Z,5.57
2018-02-19T09:33:57.483Z,5.62
2018-02-19T09:36:26.866Z,5.62
2018-02-19T09:38:56.445Z,5.64
2018-02-19T09:41:25.691Z,5.59
2018-02-19T09:43:54.988Z,5.66
2018-02-19T09:46:24.294Z,5.66
2018-02-19T09:48:53.527Z,5.75
2018-02-19T09:51:23.084Z,5.74
2018-02-19T09:53:52.338Z,5.74
2018-02-19T09:56:22.224Z,5.76
2018-02-19T09:58:51.771Z,5.90
2018-02-19T10:01:22.328Z,5.89
2018-02-19T10:03:51.565Z,5.90
2018-02-19T10:06:21.147Z,5.82
2018-02-19T10:08:50.431Z,5.83
2018-02-19T10:11:19.839Z,5.50
2018-02-19T10:13:49.414Z,5.55
2018-02-19T10:19:19.554Z,5.78
2018-02-19T10:21:50.065Z,5.91
2018-02-19T10:24:19.953Z,5.86
2018-02-19T10:26:49.560Z,5.89
2018-02-19T10:29:18.916Z,5.83
2018-02-19T10:31:48.183Z,6.01
2018-02-19T10:34:17.544Z,5.98
2018-02-19T10:36:46.806Z,6.01
2018-02-19T10:39:16.446Z,6.01
2018-02-19T10:41:45.711Z,6.05
2018-02-19T10:44:15.143Z,6.14
2018-02-19T10:46:44.437Z,6.09
2018-02-19T10:49:13.802Z,6.01
2018-02-19T10:51:44.412Z,6.09
2018-02-19T10:54:13.689Z,6.22
2018-02-19T10:56:42.947Z,6.36
2018-02-19T10:59:12.491Z,6.29
2018-02-19T11:01:41.720Z,6.34
2018-02-19T11:04:11.345Z,6.42
2018-02-19T11:06:40.914Z,6.23
2018-02-19T11:09:10.147Z,6.07
2018-02-19T11:11:39.426Z,5.99
2018-02-19T11:14:09.061Z,5.98
2018-02-19T11:16:38.382Z,6.05
2018-02-19T11:19:07.681Z,6.11
2018-02-19T11:21:36.994Z,6.16
2018-02-19T11:24:06.988Z,6.19
2018-02-19T11:26:36.211Z,6.22
2018-02-19T11:29:05.832Z,6.12
2018-02-19T11:31:35.091Z,6.08
2018-02-19T11:34:05.404Z,6.00
2018-02-19T11:36:34.994Z,6.03
2018-02-19T11:39:04.569Z,6.08
2018-02-19T11:41:33.809Z,6.14
2018-02-19T11:44:04.192Z,6.26
2018-02-19T11:46:33.517Z,6.28
2018-02-19T11:49:03.045Z,6.05
2018-02-19T11:51:32.559Z,6.13
2018-02-19T11:54:02.558Z,6.08
2018-02-19T11:56:31.793Z,5.75
2018-02-19T11:59:01.185Z,5.83
2018-02-19T12:01:30.914Z,5.95
2018-02-19T12:04:00.643Z,6.00
2018-02-19T12:06:30.016Z,5.98
2018-02-19T12:08:59.211Z,6.01
2018-02-19T12:11:28.795Z,6.08
2018-02-19T12:13:58.077Z,6.00
2018-02-19T12:16:27.378Z,6.03
2018-02-19T12:18:56.931Z,5.89
2018-02-19T12:21:26.264Z,5.92
2018-02-19T12:23:55.500Z,6.00
2018-02-19T12:26:25.051Z,6.04
2018-02-19T12:28:54.321Z,5.96
2018-02-19T12:31:23.615Z,5.94
2018-02-19T12:33:53.480Z,6.02
2018-02-19T12:36:22.819Z,6.04
2018-02-19T12:38:52.055Z,6.13
2018-02-19T12:41:21.621Z,6.21
2018-02-19T12:43:50.851Z,6.23
2018-02-19T12:46:20.096Z,6.28
2018-02-19T12:48:50.757Z,6.27
2018-02-19T12:51:21.295Z,6.18
2018-02-19T12:53:50.535Z,6.18
2018-02-19T12:56:21.184Z,6.20
2018-02-19T12:58:50.549Z,6.21
2018-02-19T13:01:20.370Z,6.24
2018-02-19T13:03:49.962Z,6.12
2018-02-19T13:06:19.586Z,6.19
2018-02-19T13:08:48.835Z,6.08
2018-02-19T13:11:18.175Z,6.08
2018-02-19T13:16:14.048Z,5.89
2018-02-19T13:18:43.875Z,5.73
2018-02-19T13:21:13.314Z,5.67
2018-02-19T13:23:42.834Z,5.74
2018-02-19T13:26:12.077Z,5.73
2018-02-19T13:28:41.360Z,5.73
2018-02-19T13:31:10.961Z,5.71
2018-02-19T13:33:40.244Z,5.79
2018-02-19T13:36:09.460Z,5.76
2018-02-19T13:38:39.038Z,5.76
2018-02-19T13:41:08.312Z,5.71
2018-02-19T13:43:38.275Z,5.67
2018-02-19T13:46:07.399Z,5.73
2018-02-19T13:48:36.671Z,5.66
2018-02-19T13:51:06.011Z,5.70
2018-02-19T13:53:35.248Z,5.75
2018-02-19T13:56:05.547Z,5.81
2018-02-19T13:58:36.202Z,5.75
2018-02-19T14:01:05.508Z,5.79
2018-02-19T14:03:34.749Z,5.84
2018-02-19T14:06:04.937Z,5.89
2018-02-19T14:08:34.199Z,5.85
2018-02-19T14:11:03.899Z,5.81
2018-02-19T14:13:33.136Z,5.68
2018-02-19T14:16:03.293Z,5.76
2018-02-19T14:18:32.835Z,5.71
2018-02-19T14:21:02.117Z,5.69
2018-02-19T14:23:31.447Z,5.74
2018-02-19T14:26:03.908Z,5.60
2018-02-19T14:28:33.280Z,5.72
2018-02-19T14:31:02.706Z,5.72
2018-02-19T14:33:32.030Z,5.60
2018-02-19T14:36:01.451Z,5.54
2018-02-19T14:38:30.990Z,5.38
2018-02-19T14:41:00.223Z,5.49
2018-02-19T14:43:29.480Z,5.63
2018-02-19T14:45:58.724Z,5.69
2018-02-19T14:48:28.050Z,5.69
2018-02-19T14:50:57.604Z,5.64
2018-02-19T14:53:27.115Z,5.66
2018-02-19T14:55:56.603Z,5.72
2018-02-19T14:58:25.859Z,5.73
2018-02-19T15:00:55.101Z,5.56
2018-02-19T15:03:24.366Z,5.62
2018-02-19T15:05:54.023Z,5.71
2018-02-19T15:08:23.265Z,5.65
2018-02-19T15:10:52.523Z,5.68
2018-02-19T15:13:22.088Z,5.57
2018-02-19T15:15:51.311Z,5.46
2018-02-19T15:18:21.503Z,5.31
2018-02-19T15:20:51.144Z,5.20
2018-02-19T15:23:20.419Z,5.23
2018-02-19T15:25:49.776Z,5.33
2018-02-19T15:28:20.392Z,5.35
2018-02-19T15:30:49.607Z,5.31
2018-02-19T15:33:18.980Z,5.38
2018-02-19T15:35:48.567Z,5.29
2018-02-19T15:40:40.963Z,5.19
2018-02-19T15:43:11.313Z,5.25
2018-02-19T15:45:40.931Z,5.06
2018-02-19T15:48:10.203Z,4.94
2018-02-19T15:50:39.824Z,4.95
2018-02-19T15:53:09.089Z,4.80
2018-02-19T15:55:38.411Z,4.88
2018-02-19T15:58:07.946Z,4.80
2018-02-19T16:00:37.245Z,4.97
2018-02-19T16:03:06.691Z,5.08
2018-02-19T16:05:36.552Z,5.14
2018-02-19T16:08:07.433Z,5.14
2018-02-19T16:10:36.717Z,5.06
2018-02-19T16:13:06.450Z,5.13
2018-02-19T16:15:35.739Z,5.13
2018-02-19T16:18:06.177Z,5.07
2018-02-19T16:20:35.811Z,5.04
2018-02-19T16:23:05.215Z,5.05
2018-02-19T16:25:34.483Z,5.07
2018-02-19T16:28:05.255Z,5.05
2018-02-19T16:30:34.597Z,5.13
2018-02-19T16:33:04.123Z,5.01
2018-02-19T16:35:33.663Z,4.89
2018-02-19T16:38:03.855Z,4.83
2018-02-19T16:40:33.131Z,4.81
2018-02-19T16:43:03.837Z,4.78
2018-02-19T16:45:33.075Z,4.64
2018-02-19T16:48:03.186Z,4.58
2018-02-19T16:50:32.735Z,4.68
2018-02-19T16:53:02.372Z,4.71
2018-02-19T16:55:31.730Z,4.77
2018-02-19T16:58:02.782Z,4.82
2018-02-19T17:00:33.718Z,4.79
2018-02-19T17:05:30.276Z,4.73
2018-02-19T17:08:00.283Z,4.84
2018-02-19T17:10:29.926Z,4.72
2018-02-19T17:12:59.487Z,4.71
2018-02-19T17:15:28.964Z,4.68
2018-02-19T17:17:58.279Z,4.68
2018-02-19T17:20:27.839Z,4.57
2018-02-19T17:22:57.058Z,4.64
2018-02-19T17:25:27.714Z,4.72
2018-02-19T17:27:57.323Z,4.78
2018-02-19T17:30:26.655Z,4.77
2018-02-19T17:32:56.020Z,4.69
2018-02-19T17:35:25.948Z,4.83
2018-02-19T17:37:55.319Z,4.83
2018-02-19T17:40:24.612Z,4.72
2018-02-19T17:42:54.197Z,4.73
2018-02-19T17:45:24.054Z,4.74
2018-02-19T17:47:53.419Z,4.65
2018-02-19T17:50:24.819Z,4.52
2018-02-19T17:52:54.098Z,4.61
2018-02-19T17:55:24.295Z,4.63
2018-02-19T17:57:53.991Z,4.66
2018-02-19T18:00:24.481Z,4.74
2018-02-19T18:02:53.773Z,4.82
2018-02-19T18:05:23.346Z,4.86
2018-02-19T18:07:52.574Z,4.98
2018-02-19T18:10:21.911Z,4.91
2018-02-19T18:12:51.448Z,4.94
2018-02-19T18:15:20.850Z,5.00
2018-02-19T18:17:50.153Z,4.98
2018-02-19T18:20:20.382Z,4.96
2018-02-19T18:22:49.625Z,4.97
2018-02-19T18:25:19.799Z,4.95
2018-02-19T18:27:49.413Z,4.98
2018-02-19T18:30:18.843Z,4.99
2018-02-19T18:32:48.123Z,4.92
2018-02-19T18:35:17.737Z,4.83
2018-02-19T18:37:47.005Z,4.91
2018-02-19T18:40:17.031Z,4.74
2018-02-19T18:42:46.636Z,4.75
2018-02-19T18:45:15.986Z,4.82
2018-02-19T18:47:45.290Z,4.89
2018-02-19T18:50:14.925Z,4.89
2018-02-19T18:52:44.575Z,4.83
2018-02-19T18:55:13.876Z,4.79
2018-02-19T18:57:43.465Z,4.76
2018-02-19T19:00:12.774Z,4.78
2018-02-19T19:02:42.086Z,4.72
2018-02-19T19:05:11.660Z,4.68
2018-02-19T19:09:57.534Z,4.73
2018-02-19T19:12:28.262Z,4.73
2018-02-19T19:14:57.479Z,4.75
2018-02-19T19:17:26.787Z,4.68
2018-02-19T19:19:56.110Z,4.59
2018-02-19T19:22:25.389Z,4.58
2018-02-19T19:24:54.894Z,4.68
2018-02-19T19:27:24.226Z,4.69
2018-02-19T19:29:53.500Z,4.73
2018-02-19T19:32:24.257Z,4.75
2018-02-19T19:34:53.539Z,4.78
2018-02-19T19:37:22.908Z,4.77
2018-02-19T19:39:52.474Z,4.76
2018-02-19T19:42:22.865Z,4.78
2018-02-19T19:44:52.164Z,4.71
2018-02-19T19:47:21.789Z,4.71
2018-02-19T19:49:51.081Z,4.70
2018-02-19T19:52:20.627Z,4.72
2018-02-19T19:54:50.419Z,4.66
2018-02-19T19:57:19.818Z,4.75
2018-02-19T19:59:49.192Z,4.66
2018-02-19T20:02:19.538Z,4.69
2018-02-19T20:04:48.968Z,4.64
2018-02-19T20:07:18.347Z,4.61
2018-02-19T20:09:47.881Z,4.62
2018-02-19T20:12:17.322Z,4.62
2018-02-19T20:14:46.609Z,4.56
2018-02-19T20:17:16.157Z,4.58
2018-02-19T20:19:45.403Z,4.58
2018-02-19T20:22:14.666Z,4.57
2018-02-19T20:24:46.080Z,4.65
2018-02-19T20:27:15.320Z,4.59
2018-02-19T20:29:44.592Z,4.54
2018-02-19T20:32:14.124Z,4.47
2018-02-19T20:34:45.270Z,4.49
2018-02-19T20:37:14.578Z,4.46
2018-02-19T20:39:44.199Z,4.51
2018-02-19T20:42:13.429Z,4.50
2018-02-19T20:44:42.652Z,4.53
2018-02-19T20:47:12.257Z,4.53
2018-02-19T20:49:41.595Z,4.48
2018-02-19T20:52:10.842Z,4.48
2018-02-19T20:54:40.427Z,4.46
2018-02-19T20:57:09.737Z,4.51
2018-02-19T20:59:39.036Z,4.50
2018-02-19T21:02:08.594Z,4.49
2018-02-19T21:04:37.884Z,4.58
2018-02-19T21:07:07.344Z,4.57
2018-02-19T21:09:38.123Z,4.55
2018-02-19T21:12:07.348Z,4.63
2018-02-19T21:14:36.606Z,4.57
2018-02-19T21:17:06.212Z,4.57
2018-02-19T21:19:35.518Z,4.54
2018-02-19T21:22:05.645Z,4.50
2018-02-19T21:24:35.390Z,4.42
2018-02-19T21:27:04.894Z,4.46
2018-02-19T21:29:34.168Z,4.49
2018-02-19T21:32:04.775Z,4.57
2018-02-19T21:34:35.006Z,4.60
2018-02-19T21:37:04.605Z,4.60
2018-02-19T21:39:34.141Z,4.61
2018-02-19T21:42:04.431Z,4.63
2018-02-19T21:44:33.699Z,4.63
2018-02-19T21:47:03.622Z,4.67
2018-02-19T21:49:33.271Z,4.60
2018-02-19T21:52:03.695Z,4.61
2018-02-19T21:54:33.330Z,4.65
2018-02-19T21:57:02.675Z,4.61
2018-02-19T21:59:31.928Z,4.58
2018-02-19T22:02:01.586Z,4.59
2018-02-19T22:04:30.842Z,4.54
2018-02-19T22:07:00.094Z,4.61
2018-02-19T22:09:29.785Z,4.65
2018-02-19T22:11:59.098Z,4.75
2018-02-19T22:14:29.096Z,4.75
2018-02-19T22:17:00.321Z,4.67
2018-02-19T22:19:30.514Z,4.66
2018-02-19T22:21:59.739Z,4.76
2018-02-19T22:24:29.312Z,4.74
2018-02-19T22:26:58.570Z,4.83
2018-02-19T22:29:28.120Z,4.76
2018-02-19T22:31:57.704Z,4.78
2018-02-19T22:34:26.939Z,4.75
2018-02-19T22:36:56.226Z,4.80
2018-02-19T22:39:25.949Z,4.78
2018-02-19T22:41:55.188Z,4.82
2018-02-19T22:44:24.689Z,4.81
2018-02-19T22:46:54.395Z,4.77
2018-02-19T22:49:23.618Z,4.74
2018-02-19T22:51:52.876Z,4.74
2018-02-19T22:54:22.448Z,4.82
2018-02-19T22:56:51.663Z,4.75
2018-02-19T22:59:21.785Z,4.75
2018-02-19T23:01:51.332Z,4.72
2018-02-19T23:04:20.605Z,4.71
2018-02-19T23:06:49.845Z,4.72
2018-02-19T23:09:20.601Z,4.78
2018-02-19T23:11:49.859Z,4.75
2018-02-19T23:14:19.137Z,4.79
2018-02-19T23:16:48.871Z,4.74
2018-02-19T23:19:18.298Z,4.71
2018-02-19T23:21:47.521Z,4.71
2018-02-19T23:24:16.995Z,4.58
2018-02-19T23:26:47.531Z,4.53
2018-02-19T23:29:16.813Z,4.55
2018-02-19T23:31:46.450Z,4.53
2018-02-19T23:34:15.691Z,4.47
2018-02-19T23:36:44.921Z,4.43
2018-02-19T23:39:14.679Z,4.30
2018-02-19T23:41:43.904Z,4.29
2018-02-19T23:44:13.204Z,4.25
2018-02-19T23:46:42.737Z,4.24
2018-02-19T23:49:11.993Z,4.19
2018-02-19T23:51:41.223Z,4.13
2018-02-19T23:54:19.403Z,4.15
2018-02-19T23:56:48.618Z,4.18
2018-02-19T23:59:17.959Z,4.25
